Time;durP1;ratioP1;P1;durP2;ratioP2;P2;SDS_P1;SDS_P2;PMS_P1;PMS_P2;Temp;Humidity;BMP_temperature;BMP_pressure;BME280_temperature;BME280_humidity;BME280_pressure;Samples;Min_cycle;Max_cycle;Signal;HPM_P1;HPM_P2
2022/10/17 00:01:59;;;;;;;;;;;22.60;46.60;;;;;;492114;240;1224;-53
2022/10/17 00:04:00;;;;;;;;;;;22.60;46.60;;;;;;491657;240;2196;-54
2022/10/17 00:06:02;;;;;;;;;;;22.50;46.50;;;;;;491850;240;1222;-53
2022/10/17 00:08:03;;;;;;;;;;;22.60;46.70;;;;;;491860;240;1235;-53
2022/10/17 00:10:04;;;;;;;;;;;22.50;46.60;;;;;;491679;240;1271;-53
2022/10/17 00:12:05;;;;;;;;;;;22.60;46.60;;;;;;491742;240;1224;-54
2022/10/17 00:14:07;;;;;;;;;;;22.50;46.60;;;;;;492111;240;1263;-54
2022/10/17 00:16:08;;;;;;;;;;;22.60;46.60;;;;;;492157;240;1237;-54
2022/10/17 00:18:09;;;;;;;;;;;22.60;46.60;;;;;;491717;240;1289;-53
2022/10/17 00:20:11;;;;;;;;;;;22.60;46.60;;;;;;491969;240;1218;-53
2022/10/17 00:22:12;;;;;;;;;;;22.60;46.70;;;;;;491695;240;1230;-53
2022/10/17 00:24:13;;;;;;;;;;;22.60;46.70;;;;;;491967;240;2153;-53
2022/10/17 00:26:15;;;;;;;;;;;22.60;46.70;;;;;;492065;240;1202;-53
2022/10/17 00:28:16;;;;;;;;;;;22.60;46.70;;;;;;492017;240;1212;-53
2022/10/17 00:30:17;;;;;;;;;;;22.50;46.70;;;;;;491673;240;1196;-54
2022/10/17 00:32:19;;;;;;;;;;;22.50;46.70;;;;;;491683;240;1235;-53
2022/10/17 00:34:20;;;;;;;;;;;22.50;46.70;;;;;;491778;240;1237;-53
2022/10/17 00:36:21;;;;;;;;;;;22.50;46.80;;;;;;492074;240;1194;-53
2022/10/17 00:38:23;;;;;;;;;;;22.50;46.80;;;;;;492110;240;1341;-53
2022/10/17 00:40:24;;;;;;;;;;;22.60;46.80;;;;;;491677;240;1245;-53
2022/10/17 00:42:25;;;;;;;;;;;22.60;46.80;;;;;;491677;240;1298;-54
2022/10/17 00:44:27;;;;;;;;;;;22.50;46.70;;;;;;491691;240;2106;-53
2022/10/17 00:46:28;;;;;;;;;;;22.60;46.80;;;;;;491797;240;1184;-54
2022/10/17 00:48:29;;;;;;;;;;;22.50;46.70;;;;;;492035;240;1197;-53
2022/10/17 00:50:31;;;;;;;;;;;22.50;46.70;;;;;;491679;240;1552;-54
2022/10/17 00:52:32;;;;;;;;;;;22.60;46.80;;;;;;491818;240;1127;-53
2022/10/17 00:54:33;;;;;;;;;;;22.60;46.90;;;;;;491718;240;1211;-53
2022/10/17 00:56:35;;;;;;;;;;;22.50;46.80;;;;;;491708;240;1292;-53
2022/10/17 00:58:36;;;;;;;;;;;22.60;46.90;;;;;;492159;240;1493;-53
2022/10/17 01:00:37;;;;;;;;;;;22.50;46.80;;;;;;491691;240;1291;-53
2022/10/17 01:02:38;;;;;;;;;;;22.50;46.80;;;;;;492117;240;1203;-54
2022/10/17 01:04:40;;;;;;;;;;;22.50;46.80;;;;;;491805;240;2179;-53
2022/10/17 01:06:41;;;;;;;;;;;22.50;46.80;;;;;;492062;240;1261;-53
2022/10/17 01:08:42;;;;;;;;;;;22.50;46.80;;;;;;492159;240;1212;-53
2022/10/17 01:10:44;;;;;;;;;;;22.50;46.80;;;;;;491679;240;1230;-53
2022/10/17 01:12:45;;;;;;;;;;;22.50;46.80;;;;;;491691;240;1845;-53
2022/10/17 01:14:47;;;;;;;;;;;22.50;46.80;;;;;;492150;240;1218;-53
2022/10/17 01:16:51;;;;;;;;;;;22.50;46.80;;;;;;492079;240;1174;-54
2022/10/17 01:18:49;;;;;;;;;;;22.50;46.80;;;;;;491736;240;2083;-53
2022/10/17 01:20:51;;;;;;;;;;;22.50;46.80;;;;;;491965;240;1192;-54
2022/10/17 01:22:52;;;;;;;;;;;22.50;46.90;;;;;;491681;240;1229;-53
2022/10/17 01:24:53;;;;;;;;;;;22.60;46.90;;;;;;491694;240;2121;-53
2022/10/17 01:26:55;;;;;;;;;;;22.60;46.90;;;;;;491695;240;1178;-54
2022/10/17 01:28:56;;;;;;;;;;;22.50;46.90;;;;;;491711;240;1249;-53
2022/10/17 01:30:57;;;;;;;;;;;22.50;46.90;;;;;;492140;240;1599;-53
2022/10/17 01:32:59;;;;;;;;;;;22.50;46.80;;;;;;492145;240;1176;-53
2022/10/17 01:35:00;;;;;;;;;;;22.50;46.80;;;;;;491796;240;1287;-53
2022/10/17 01:37:01;;;;;;;;;;;22.50;46.80;;;;;;491825;240;1171;-53
2022/10/17 01:39:03;;;;;;;;;;;22.50;46.90;;;;;;491823;240;1214;-53
2022/10/17 01:41:04;;;;;;;;;;;22.50;46.90;;;;;;492142;240;1227;-53
2022/10/17 01:43:05;;;;;;;;;;;22.50;46.80;;;;;;491698;240;2200;-53
2022/10/17 01:45:07;;;;;;;;;;;22.50;46.80;;;;;;491739;240;1233;-54
2022/10/17 01:47:08;;;;;;;;;;;22.50;46.80;;;;;;492166;240;1206;-53
2022/10/17 01:49:09;;;;;;;;;;;22.50;46.80;;;;;;491688;240;1289;-54
2022/10/17 01:51:11;;;;;;;;;;;22.50;47.00;;;;;;491992;240;1101;-53
2022/10/17 01:53:12;;;;;;;;;;;22.60;46.90;;;;;;491697;240;1244;-54
2022/10/17 01:55:13;;;;;;;;;;;22.50;46.90;;;;;;492118;240;1199;-53
2022/10/17 01:57:15;;;;;;;;;;;22.50;46.90;;;;;;491681;240;1114;-54
2022/10/17 01:59:16;;;;;;;;;;;22.50;46.90;;;;;;492149;240;1177;-53
2022/10/17 02:01:17;;;;;;;;;;;22.50;47.00;;;;;;491676;240;1199;-53
2022/10/17 02:03:19;;;;;;;;;;;22.50;46.90;;;;;;492071;240;2149;-53
2022/10/17 02:05:20;;;;;;;;;;;22.50;47.00;;;;;;491782;240;1215;-53
2022/10/17 02:07:21;;;;;;;;;;;22.50;47.00;;;;;;492072;240;1288;-54
2022/10/17 02:09:23;;;;;;;;;;;22.50;47.00;;;;;;491871;240;1572;-53
2022/10/17 02:11:24;;;;;;;;;;;22.50;47.00;;;;;;491698;240;1172;-54
2022/10/17 02:13:25;;;;;;;;;;;22.50;47.00;;;;;;491688;240;1289;-54
2022/10/17 02:15:27;;;;;;;;;;;22.50;47.00;;;;;;491708;240;1285;-53
2022/10/17 02:17:28;;;;;;;;;;;22.50;47.00;;;;;;492151;240;1237;-53
2022/10/17 02:19:29;;;;;;;;;;;22.50;47.00;;;;;;491880;240;1167;-53
2022/10/17 02:21:31;;;;;;;;;;;22.50;47.00;;;;;;492041;240;1202;-53
2022/10/17 02:23:33;;;;;;;;;;;22.50;47.00;;;;;;491921;240;2144;-53
2022/10/17 02:25:34;;;;;;;;;;;22.50;47.00;;;;;;491725;240;1151;-53
2022/10/17 02:27:35;;;;;;;;;;;22.50;46.90;;;;;;491704;240;1141;-53
2022/10/17 02:29:37;;;;;;;;;;;22.50;46.90;;;;;;491784;240;1173;-53
2022/10/17 02:31:38;;;;;;;;;;;22.50;46.80;;;;;;491684;240;1234;-54
2022/10/17 02:33:39;;;;;;;;;;;22.50;46.70;;;;;;491921;240;1223;-53
2022/10/17 02:35:41;;;;;;;;;;;22.50;46.60;;;;;;491737;240;1308;-53
2022/10/17 02:37:42;;;;;;;;;;;22.60;46.50;;;;;;491782;240;1202;-53
2022/10/17 02:39:43;;;;;;;;;;;22.60;46.40;;;;;;491695;240;1240;-53
2022/10/17 02:41:45;;;;;;;;;;;22.60;46.30;;;;;;492141;240;1319;-54
2022/10/17 02:43:46;;;;;;;;;;;22.60;46.30;;;;;;491702;240;2164;-54
2022/10/17 02:45:47;;;;;;;;;;;22.60;46.10;;;;;;491687;240;1194;-53
2022/10/17 02:47:49;;;;;;;;;;;22.60;46.00;;;;;;492156;240;1165;-53
2022/10/17 02:49:50;;;;;;;;;;;22.70;45.90;;;;;;492021;240;1337;-53
2022/10/17 02:51:52;;;;;;;;;;;22.70;45.90;;;;;;492055;240;1290;-54
2022/10/17 02:53:53;;;;;;;;;;;22.70;45.80;;;;;;492164;240;1225;-53
2022/10/17 02:55:54;;;;;;;;;;;22.70;45.80;;;;;;491703;240;1207;-53
2022/10/17 02:57:56;;;;;;;;;;;22.70;45.60;;;;;;491681;240;1206;-53
2022/10/17 02:59:57;;;;;;;;;;;22.70;45.70;;;;;;491707;240;1144;-53
2022/10/17 03:01:58;;;;;;;;;;;22.70;45.60;;;;;;492082;240;1211;-53
2022/10/17 03:04:00;;;;;;;;;;;22.70;45.50;;;;;;491968;240;2199;-54
2022/10/17 03:06:01;;;;;;;;;;;22.70;45.30;;;;;;491672;240;1203;-53
2022/10/17 03:08:02;;;;;;;;;;;22.70;45.40;;;;;;491676;240;1186;-53
2022/10/17 03:10:04;;;;;;;;;;;22.70;45.40;;;;;;492129;240;1218;-53
2022/10/17 03:12:05;;;;;;;;;;;22.70;45.30;;;;;;491655;240;1248;-53
2022/10/17 03:14:06;;;;;;;;;;;22.70;45.30;;;;;;492118;240;1244;-53
2022/10/17 03:16:08;;;;;;;;;;;22.70;45.30;;;;;;492026;240;1190;-52
2022/10/17 03:18:09;;;;;;;;;;;22.80;45.20;;;;;;491875;240;1344;-54
2022/10/17 03:20:10;;;;;;;;;;;22.70;45.00;;;;;;492005;240;1202;-53
2022/10/17 03:22:12;;;;;;;;;;;22.70;45.00;;;;;;491822;240;1246;-53
2022/10/17 03:24:13;;;;;;;;;;;22.70;45.00;;;;;;491631;240;2157;-53
2022/10/17 03:26:14;;;;;;;;;;;22.70;44.90;;;;;;491646;240;1254;-54
2022/10/17 03:28:16;;;;;;;;;;;22.70;45.00;;;;;;491666;240;1188;-54
2022/10/17 03:30:17;;;;;;;;;;;22.70;44.90;;;;;;491662;240;1267;-54
2022/10/17 03:32:18;;;;;;;;;;;22.80;44.80;;;;;;491669;240;1232;-54
2022/10/17 03:34:20;;;;;;;;;;;22.70;44.80;;;;;;491890;240;1242;-53
2022/10/17 03:36:21;;;;;;;;;;;22.70;44.70;;;;;;491744;240;1230;-53
2022/10/17 03:38:22;;;;;;;;;;;22.80;44.70;;;;;;491889;240;1347;-53
2022/10/17 03:40:23;;;;;;;;;;;22.80;44.70;;;;;;491626;240;1208;-53
2022/10/17 03:42:25;;;;;;;;;;;22.70;44.60;;;;;;491659;240;1222;-54
2022/10/17 03:44:26;;;;;;;;;;;22.70;44.50;;;;;;491839;240;2172;-54
2022/10/17 03:46:28;;;;;;;;;;;22.70;44.60;;;;;;491670;240;1376;-53
2022/10/17 03:48:29;;;;;;;;;;;22.70;44.40;;;;;;492134;240;1186;-53
2022/10/17 03:50:30;;;;;;;;;;;22.70;44.50;;;;;;491970;240;1317;-54
2022/10/17 03:52:31;;;;;;;;;;;22.70;44.50;;;;;;492103;240;1289;-53
2022/10/17 03:54:33;;;;;;;;;;;22.80;44.40;;;;;;492148;240;1229;-53
2022/10/17 03:56:34;;;;;;;;;;;22.70;44.40;;;;;;491628;240;1083;-54
2022/10/17 03:58:35;;;;;;;;;;;22.70;44.30;;;;;;491784;240;1104;-54
2022/10/17 04:00:37;;;;;;;;;;;22.70;44.30;;;;;;491695;240;1118;-53
2022/10/17 04:02:38;;;;;;;;;;;22.80;44.30;;;;;;492161;240;1098;-53
2022/10/17 04:04:39;;;;;;;;;;;22.70;44.30;;;;;;491925;240;2160;-53
2022/10/17 04:06:41;;;;;;;;;;;22.70;44.20;;;;;;491806;240;1203;-54
2022/10/17 04:08:42;;;;;;;;;;;22.80;44.10;;;;;;492101;240;1133;-53
2022/10/17 04:10:43;;;;;;;;;;;22.80;44.10;;;;;;492002;240;1291;-53
2022/10/17 04:12:45;;;;;;;;;;;22.70;44.00;;;;;;492148;240;1111;-53
2022/10/17 04:14:46;;;;;;;;;;;22.80;44.20;;;;;;491924;240;1055;-53
2022/10/17 04:16:47;;;;;;;;;;;22.70;44.10;;;;;;491922;240;1196;-53
2022/10/17 04:18:49;;;;;;;;;;;22.70;44.00;;;;;;491832;240;1143;-54
2022/10/17 04:20:50;;;;;;;;;;;22.70;44.10;;;;;;491931;240;1303;-53
2022/10/17 04:22:51;;;;;;;;;;;22.70;44.10;;;;;;491745;240;1226;-53
2022/10/17 04:24:53;;;;;;;;;;;22.70;44.00;;;;;;491651;240;2200;-53
2022/10/17 04:26:54;;;;;;;;;;;22.70;43.90;;;;;;491638;240;1199;-54
2022/10/17 04:28:55;;;;;;;;;;;22.70;43.90;;;;;;491642;240;1087;-54
2022/10/17 04:30:57;;;;;;;;;;;22.80;43.90;;;;;;492104;240;1270;-53
2022/10/17 04:32:58;;;;;;;;;;;22.70;43.80;;;;;;492134;240;1080;-54
2022/10/17 04:34:59;;;;;;;;;;;22.80;43.90;;;;;;492048;240;1273;-54
2022/10/17 04:37:01;;;;;;;;;;;22.70;43.80;;;;;;491627;240;1223;-54
2022/10/17 04:39:03;;;;;;;;;;;22.70;43.80;;;;;;491654;240;1166;-54
2022/10/17 04:41:03;;;;;;;;;;;22.70;43.70;;;;;;491817;240;2655;-54
2022/10/17 04:43:05;;;;;;;;;;;22.70;43.70;;;;;;491615;240;1070;-54
2022/10/17 04:45:06;;;;;;;;;;;22.70;43.80;;;;;;491625;240;2204;-53
2022/10/17 04:47:07;;;;;;;;;;;22.70;43.60;;;;;;491703;240;1304;-54
2022/10/17 04:49:09;;;;;;;;;;;22.70;43.70;;;;;;491826;240;1126;-53
2022/10/17 04:51:10;;;;;;;;;;;22.70;43.70;;;;;;491594;240;1098;-53
2022/10/17 04:53:11;;;;;;;;;;;22.70;43.80;;;;;;491641;240;1111;-53
2022/10/17 04:55:12;;;;;;;;;;;22.70;44.00;;;;;;491585;240;1084;-53
2022/10/17 04:57:14;;;;;;;;;;;22.60;44.10;;;;;;491654;240;1166;-54
2022/10/17 04:59:15;;;;;;;;;;;22.70;44.30;;;;;;492089;240;1107;-53
2022/10/17 05:01:16;;;;;;;;;;;22.60;44.40;;;;;;492121;240;1100;-53
2022/10/17 05:03:18;;;;;;;;;;;22.60;44.50;;;;;;492085;240;1312;-53
2022/10/17 05:05:19;;;;;;;;;;;22.70;44.60;;;;;;492114;240;2168;-54
2022/10/17 05:07:20;;;;;;;;;;;22.60;44.60;;;;;;491679;240;1212;-53
2022/10/17 05:09:22;;;;;;;;;;;22.60;44.60;;;;;;491470;240;1218;-53
2022/10/17 05:11:23;;;;;;;;;;;22.60;44.70;;;;;;491777;240;1172;-53
2022/10/17 05:13:24;;;;;;;;;;;22.60;44.70;;;;;;491707;240;1282;-53
2022/10/17 05:15:26;;;;;;;;;;;22.60;44.80;;;;;;491713;240;1202;-53
2022/10/17 05:17:27;;;;;;;;;;;22.60;44.90;;;;;;491614;240;1795;-54
2022/10/17 05:19:28;;;;;;;;;;;22.60;44.90;;;;;;492109;240;1204;-53
2022/10/17 05:21:30;;;;;;;;;;;22.60;44.90;;;;;;491517;240;1255;-53
2022/10/17 05:23:31;;;;;;;;;;;22.50;45.00;;;;;;491984;240;1199;-53
2022/10/17 05:25:32;;;;;;;;;;;22.60;45.00;;;;;;491903;240;2160;-53
2022/10/17 05:27:34;;;;;;;;;;;22.60;45.10;;;;;;492062;240;1274;-53
2022/10/17 05:29:35;;;;;;;;;;;22.60;45.10;;;;;;491791;240;1372;-53
2022/10/17 05:31:36;;;;;;;;;;;22.60;45.10;;;;;;491562;240;1204;-53
2022/10/17 05:33:38;;;;;;;;;;;22.50;45.10;;;;;;491537;240;1174;-54
2022/10/17 05:35:39;;;;;;;;;;;22.50;45.10;;;;;;492029;240;1213;-53
2022/10/17 05:37:40;;;;;;;;;;;22.60;45.20;;;;;;491752;240;1683;-53
2022/10/17 05:39:42;;;;;;;;;;;22.50;45.20;;;;;;491748;240;1175;-53
2022/10/17 05:41:43;;;;;;;;;;;22.60;45.20;;;;;;491620;240;1253;-54
2022/10/17 05:43:44;;;;;;;;;;;22.60;45.20;;;;;;491737;240;1555;-53
2022/10/17 05:45:46;;;;;;;;;;;22.50;45.10;;;;;;492000;240;2145;-53
2022/10/17 05:47:47;;;;;;;;;;;22.60;45.30;;;;;;491576;240;1272;-53
2022/10/17 05:49:48;;;;;;;;;;;22.50;45.30;;;;;;491796;240;1366;-53
2022/10/17 05:51:50;;;;;;;;;;;22.50;45.30;;;;;;491519;240;1194;-53
2022/10/17 05:53:51;;;;;;;;;;;22.50;45.30;;;;;;491732;240;1169;-53
2022/10/17 05:55:52;;;;;;;;;;;22.50;45.30;;;;;;491557;240;1498;-54
2022/10/17 05:57:53;;;;;;;;;;;22.50;45.40;;;;;;491636;240;1175;-53
2022/10/17 05:59:55;;;;;;;;;;;22.50;45.40;;;;;;491651;240;1258;-53
2022/10/17 06:01:56;;;;;;;;;;;22.50;45.40;;;;;;491517;240;1189;-53
2022/10/17 06:03:57;;;;;;;;;;;22.60;45.50;;;;;;491693;240;1343;-53
2022/10/17 06:05:59;;;;;;;;;;;22.60;45.50;;;;;;491427;240;2204;-53
2022/10/17 06:08:00;;;;;;;;;;;22.60;45.50;;;;;;491714;240;1306;-53
2022/10/17 06:10:01;;;;;;;;;;;22.60;45.50;;;;;;491530;240;1178;-53
2022/10/17 06:12:03;;;;;;;;;;;22.50;45.50;;;;;;491646;240;1170;-54
2022/10/17 06:14:04;;;;;;;;;;;22.50;45.50;;;;;;491952;240;1089;-54
2022/10/17 06:16:05;;;;;;;;;;;22.50;45.50;;;;;;491807;240;1258;-53
2022/10/17 06:18:07;;;;;;;;;;;22.50;45.50;;;;;;491518;240;1247;-53
2022/10/17 06:20:08;;;;;;;;;;;22.60;45.60;;;;;;491909;240;1100;-53
2022/10/17 06:22:09;;;;;;;;;;;22.50;45.60;;;;;;491439;240;1236;-53
2022/10/17 06:24:11;;;;;;;;;;;22.50;45.50;;;;;;491681;240;1150;-53
2022/10/17 06:26:12;;;;;;;;;;;22.60;45.70;;;;;;491644;240;2203;-53
2022/10/17 06:28:13;;;;;;;;;;;22.50;45.60;;;;;;491818;240;1226;-53
2022/10/17 06:30:15;;;;;;;;;;;22.50;45.60;;;;;;492000;240;1171;-53
2022/10/17 06:32:16;;;;;;;;;;;22.60;45.70;;;;;;491578;240;1566;-53
2022/10/17 06:34:17;;;;;;;;;;;22.50;45.60;;;;;;491543;240;1118;-53
2022/10/17 06:36:19;;;;;;;;;;;22.50;45.60;;;;;;491622;240;1192;-53
2022/10/17 06:38:20;;;;;;;;;;;22.60;45.70;;;;;;491574;240;1202;-54
2022/10/17 06:40:22;;;;;;;;;;;22.50;45.60;;;;;;491829;240;1199;-53
2022/10/17 06:42:23;;;;;;;;;;;22.50;45.60;;;;;;491519;240;1235;-54
2022/10/17 06:44:27;;;;;;;;;;;22.60;45.70;;;;;;491499;240;1303;-53
2022/10/17 06:46:28;;;;;;;;;;;22.50;45.70;;;;;;491652;240;2172;-53
2022/10/17 06:48:27;;;;;;;;;;;22.50;45.70;;;;;;491530;240;1487;-53
2022/10/17 06:50:28;;;;;;;;;;;22.50;45.70;;;;;;491482;240;1180;-53
2022/10/17 06:52:30;;;;;;;;;;;22.50;45.70;;;;;;491681;240;1168;-54
2022/10/17 06:54:31;;;;;;;;;;;22.50;45.80;;;;;;491650;240;1243;-53
2022/10/17 06:56:32;;;;;;;;;;;22.50;45.80;;;;;;491556;240;1435;-53
2022/10/17 06:58:34;;;;;;;;;;;22.50;45.80;;;;;;491556;240;1323;-53
2022/10/17 07:00:35;;;;;;;;;;;22.50;45.80;;;;;;485778;240;4840;-53
2022/10/17 07:02:36;;;;;;;;;;;22.50;45.80;;;;;;477245;248;4818;-53
2022/10/17 07:04:38;;;;;;;;;;;22.50;45.90;;;;;;474728;249;1320;-53
2022/10/17 07:06:39;;;;;;;;;;;22.50;45.90;;;;;;474223;251;2126;-53
2022/10/17 07:08:40;;;;;;;;;;;22.50;45.90;;;;;;474381;251;1214;-53
2022/10/17 07:10:42;;;;;;;;;;;22.50;45.90;;;;;;474519;251;1249;-53
2022/10/17 07:12:44;;;;;;;;;;;22.50;46.00;;;;;;474730;251;1217;-52
2022/10/17 07:14:46;;;;;;;;;;;22.50;46.00;;;;;;474295;251;1427;-52
2022/10/17 07:16:46;;;;;;;;;;;22.60;46.00;;;;;;474706;251;2239;-52
2022/10/17 07:18:47;;;;;;;;;;;22.50;46.00;;;;;;474418;251;1237;-52
2022/10/17 07:20:48;;;;;;;;;;;22.60;46.10;;;;;;474361;251;1267;-53
2022/10/17 07:22:50;;;;;;;;;;;22.50;46.00;;;;;;474426;251;1276;-54
2022/10/17 07:24:51;;;;;;;;;;;22.50;46.00;;;;;;474485;251;1245;-53
2022/10/17 07:26:52;;;;;;;;;;;22.60;46.10;;;;;;474470;251;2134;-53
2022/10/17 07:28:54;;;;;;;;;;;22.60;46.10;;;;;;474427;251;1362;-53
2022/10/17 07:30:56;;;;;;;;;;;22.60;46.10;;;;;;474395;251;1241;-53
2022/10/17 07:32:57;;;;;;;;;;;22.60;46.10;;;;;;474625;251;1184;-54
2022/10/17 07:34:59;;;;;;;;;;;22.60;46.10;;;;;;474625;251;1202;-53
2022/10/17 07:37:00;;;;;;;;;;;22.60;46.20;;;;;;474288;251;1235;-54
2022/10/17 07:39:01;;;;;;;;;;;22.60;46.20;;;;;;474427;251;1248;-53
2022/10/17 07:41:02;;;;;;;;;;;22.60;46.20;;;;;;474486;251;1532;-53
2022/10/17 07:43:04;;;;;;;;;;;22.60;46.20;;;;;;474705;251;1358;-53
2022/10/17 07:45:05;;;;;;;;;;;22.50;46.20;;;;;;474379;251;1225;-53
2022/10/17 07:47:06;;;;;;;;;;;22.60;46.30;;;;;;474431;251;2192;-53
2022/10/17 07:49:08;;;;;;;;;;;22.50;46.20;;;;;;474521;251;1330;-53
2022/10/17 07:51:09;;;;;;;;;;;22.60;46.30;;;;;;474789;251;1312;-54
2022/10/17 07:53:10;;;;;;;;;;;22.60;46.30;;;;;;474359;250;1232;-54
2022/10/17 07:55:12;;;;;;;;;;;22.50;46.30;;;;;;474456;251;1716;-53
2022/10/17 07:57:13;;;;;;;;;;;22.60;46.40;;;;;;473551;251;1196;-53
2022/10/17 07:59:14;;;;;;;;;;;22.60;46.30;;;;;;474304;251;1268;-54
2022/10/17 08:01:16;;;;;;;;;;;22.50;46.30;;;;;;474259;251;1242;-53
2022/10/17 08:03:17;;;;;;;;;;;22.50;46.40;;;;;;473639;251;1392;-54
2022/10/17 08:05:18;;;;;;;;;;;22.50;46.40;;;;;;474131;251;2166;-53
2022/10/17 08:07:20;;;;;;;;;;;22.60;46.40;;;;;;474185;251;1279;-53
2022/10/17 08:09:21;;;;;;;;;;;22.60;46.40;;;;;;474057;251;1215;-53
2022/10/17 08:11:24;;;;;;;;;;;22.50;46.40;;;;;;474244;251;1337;-53
2022/10/17 08:13:24;;;;;;;;;;;22.60;46.50;;;;;;473300;251;2427;-54
2022/10/17 08:15:25;;;;;;;;;;;22.60;46.50;;;;;;474157;251;1262;-53
2022/10/17 08:17:26;;;;;;;;;;;22.60;46.50;;;;;;474227;251;1219;-53
2022/10/17 08:19:28;;;;;;;;;;;22.60;46.50;;;;;;474240;251;1197;-53
2022/10/17 08:21:29;;;;;;;;;;;22.60;46.50;;;;;;474491;251;1367;-53
2022/10/17 08:23:30;;;;;;;;;;;22.60;46.50;;;;;;474359;251;1239;-53
2022/10/17 08:25:32;;;;;;;;;;;22.50;46.40;;;;;;474294;251;2185;-53
2022/10/17 08:27:33;;;;;;;;;;;22.60;46.50;;;;;;474702;251;1263;-53
2022/10/17 08:29:34;;;;;;;;;;;22.60;46.60;;;;;;474436;251;1188;-53
2022/10/17 08:31:36;;;;;;;;;;;22.60;46.50;;;;;;474436;251;1237;-53
2022/10/17 08:33:37;;;;;;;;;;;22.60;46.60;;;;;;474543;251;1228;-53
2022/10/17 08:35:39;;;;;;;;;;;22.60;46.60;;;;;;474371;251;1272;-53
2022/10/17 08:37:40;;;;;;;;;;;22.60;46.60;;;;;;474329;251;1213;-53
2022/10/17 08:39:41;;;;;;;;;;;22.60;46.60;;;;;;474418;251;1204;-53
2022/10/17 08:41:43;;;;;;;;;;;22.60;46.70;;;;;;474438;251;1540;-53
2022/10/17 08:43:44;;;;;;;;;;;22.60;46.70;;;;;;474344;251;1204;-53
2022/10/17 08:45:45;;;;;;;;;;;22.60;46.60;;;;;;474334;251;2201;-54
2022/10/17 08:47:46;;;;;;;;;;;22.60;46.70;;;;;;474480;251;1225;-54
2022/10/17 08:49:50;;;;;;;;;;;22.60;46.70;;;;;;474396;251;1194;-53
2022/10/17 08:51:49;;;;;;;;;;;22.60;46.70;;;;;;474474;251;1812;-53
2022/10/17 08:53:50;;;;;;;;;;;22.60;46.70;;;;;;474597;251;1208;-53
2022/10/17 08:55:52;;;;;;;;;;;22.60;46.70;;;;;;474282;251;1160;-53
2022/10/17 08:57:53;;;;;;;;;;;22.60;46.70;;;;;;474295;251;1194;-53
2022/10/17 08:59:55;;;;;;;;;;;22.60;46.80;;;;;;474461;251;1325;-53
2022/10/17 09:01:56;;;;;;;;;;;22.60;46.80;;;;;;474155;251;2185;-53
2022/10/17 09:03:58;;;;;;;;;;;22.60;46.80;;;;;;474380;251;1281;-53
2022/10/17 09:05:59;;;;;;;;;;;22.60;46.80;;;;;;474548;251;2157;-54
2022/10/17 09:08:00;;;;;;;;;;;22.60;46.90;;;;;;474396;251;1512;-53
2022/10/17 09:10:01;;;;;;;;;;;22.60;46.90;;;;;;474303;251;1246;-53
2022/10/17 09:12:03;;;;;;;;;;;22.60;46.90;;;;;;474347;251;1280;-53
2022/10/17 09:14:04;;;;;;;;;;;22.60;46.90;;;;;;474451;251;1210;-53
2022/10/17 09:16:06;;;;;;;;;;;22.60;46.90;;;;;;474321;251;1183;-53
2022/10/17 09:18:07;;;;;;;;;;;22.60;46.90;;;;;;474519;251;1241;-53
2022/10/17 09:20:09;;;;;;;;;;;22.60;46.90;;;;;;474393;251;1196;-53
2022/10/17 09:22:10;;;;;;;;;;;22.60;46.90;;;;;;474278;251;1283;-53
2022/10/17 09:24:12;;;;;;;;;;;22.60;46.90;;;;;;474619;251;1221;-53
2022/10/17 09:26:13;;;;;;;;;;;22.60;46.90;;;;;;474216;251;2165;-53
2022/10/17 09:28:14;;;;;;;;;;;22.60;46.90;;;;;;474278;251;1175;-53
2022/10/17 09:30:16;;;;;;;;;;;22.60;46.90;;;;;;474300;251;1243;-54
2022/10/17 09:32:17;;;;;;;;;;;22.60;46.90;;;;;;474301;251;1249;-54
2022/10/17 09:34:18;;;;;;;;;;;22.60;46.90;;;;;;474351;251;1187;-53
2022/10/17 09:36:20;;;;;;;;;;;22.60;46.90;;;;;;474286;251;1177;-53
2022/10/17 09:38:21;;;;;;;;;;;22.60;46.90;;;;;;474226;251;1540;-53
2022/10/17 09:40:22;;;;;;;;;;;22.60;46.90;;;;;;474410;251;1304;-54
2022/10/17 09:42:24;;;;;;;;;;;22.60;46.90;;;;;;474355;251;1208;-53
2022/10/17 09:44:25;;;;;;;;;;;22.60;46.90;;;;;;474311;251;1271;-53
2022/10/17 09:46:26;;;;;;;;;;;22.60;47.00;;;;;;474523;251;2188;-54
2022/10/17 09:48:28;;;;;;;;;;;22.60;47.00;;;;;;474346;251;1276;-53
2022/10/17 09:50:29;;;;;;;;;;;22.60;47.00;;;;;;474381;251;1219;-53
2022/10/17 09:52:30;;;;;;;;;;;22.60;47.10;;;;;;474435;251;1208;-53
2022/10/17 09:54:32;;;;;;;;;;;22.60;47.10;;;;;;474701;251;1217;-53
2022/10/17 09:56:33;;;;;;;;;;;22.60;47.10;;;;;;474439;251;1230;-53
2022/10/17 09:58:34;;;;;;;;;;;22.60;47.10;;;;;;474317;251;1333;-53
2022/10/17 10:00:36;;;;;;;;;;;22.60;47.10;;;;;;474404;251;1272;-53
2022/10/17 10:02:39;;;;;;;;;;;22.60;47.20;;;;;;474277;251;1395;-53
2022/10/17 10:04:38;;;;;;;;;;;22.60;47.20;;;;;;474226;251;1915;-53
2022/10/17 10:06:40;;;;;;;;;;;22.60;47.20;;;;;;474348;251;2221;-53
2022/10/17 10:08:41;;;;;;;;;;;22.60;47.20;;;;;;474393;251;1357;-53
2022/10/17 10:10:42;;;;;;;;;;;22.70;47.20;;;;;;474403;251;1428;-53
2022/10/17 10:12:44;;;;;;;;;;;22.70;47.20;;;;;;474327;251;1218;-53
2022/10/17 10:14:45;;;;;;;;;;;22.60;47.20;;;;;;474391;251;1778;-53
2022/10/17 10:16:47;;;;;;;;;;;22.60;47.20;;;;;;474430;251;1243;-54
2022/10/17 10:18:48;;;;;;;;;;;22.60;47.20;;;;;;474336;251;1168;-53
2022/10/17 10:20:49;;;;;;;;;;;22.60;47.30;;;;;;474528;251;1235;-53
2022/10/17 10:22:51;;;;;;;;;;;22.60;47.30;;;;;;474378;251;1285;-54
2022/10/17 10:24:52;;;;;;;;;;;22.60;47.20;;;;;;474479;251;1258;-53
2022/10/17 10:26:54;;;;;;;;;;;22.60;46.90;;;;;;474285;251;2169;-53
2022/10/17 10:28:55;;;;;;;;;;;22.70;46.90;;;;;;473954;251;1254;-54
2022/10/17 10:30:56;;;;;;;;;;;22.70;46.90;;;;;;473979;251;1342;-53
2022/10/17 10:32:58;;;;;;;;;;;22.70;46.80;;;;;;474372;251;1254;-54
2022/10/17 10:34:59;;;;;;;;;;;22.70;46.60;;;;;;474507;251;1172;-53
2022/10/17 10:37:01;;;;;;;;;;;22.80;46.60;;;;;;474468;251;1289;-53
2022/10/17 10:39:02;;;;;;;;;;;22.70;46.50;;;;;;474491;251;1331;-54
2022/10/17 10:41:04;;;;;;;;;;;22.80;46.30;;;;;;474523;251;1541;-53
2022/10/17 10:43:06;;;;;;;;;;;22.80;46.30;;;;;;474482;251;1214;-53
2022/10/17 10:45:07;;;;;;;;;;;22.80;46.20;;;;;;474591;251;1290;-53
2022/10/17 10:47:08;;;;;;;;;;;22.80;46.10;;;;;;474457;251;2161;-53
2022/10/17 10:49:09;;;;;;;;;;;22.80;46.10;;;;;;474583;251;1225;-53
2022/10/17 10:51:11;;;;;;;;;;;22.80;46.10;;;;;;474313;251;1193;-53
2022/10/17 10:53:12;;;;;;;;;;;22.80;46.00;;;;;;474402;251;1181;-53
2022/10/17 10:55:13;;;;;;;;;;;22.80;46.00;;;;;;474529;251;1307;-54
2022/10/17 10:57:18;;;;;;;;;;;22.80;46.00;;;;;;474280;251;1235;-54
2022/10/17 10:59:17;;;;;;;;;;;22.80;45.80;;;;;;474133;251;2085;-53
2022/10/17 11:01:18;;;;;;;;;;;22.80;45.80;;;;;;474389;251;1438;-53
2022/10/17 11:03:19;;;;;;;;;;;22.90;45.80;;;;;;474341;251;1242;-53
2022/10/17 11:05:20;;;;;;;;;;;22.90;45.70;;;;;;474556;251;1261;-53
2022/10/17 11:07:22;;;;;;;;;;;22.90;45.70;;;;;;474343;251;2204;-53
2022/10/17 11:09:23;;;;;;;;;;;22.90;45.60;;;;;;474273;251;1537;-53
2022/10/17 11:11:25;;;;;;;;;;;22.90;45.60;;;;;;474379;251;1168;-53
2022/10/17 11:13:27;;;;;;;;;;;22.90;45.50;;;;;;474432;251;1246;-54
2022/10/17 11:15:27;;;;;;;;;;;22.90;45.60;;;;;;474318;251;2067;-52
2022/10/17 11:17:29;;;;;;;;;;;22.90;45.50;;;;;;474305;251;1210;-53
2022/10/17 11:19:30;;;;;;;;;;;22.90;45.50;;;;;;474313;251;1218;-53
2022/10/17 11:21:31;;;;;;;;;;;22.90;45.30;;;;;;474622;251;1261;-53
2022/10/17 11:23:33;;;;;;;;;;;22.90;45.40;;;;;;474274;251;1196;-53
2022/10/17 11:25:34;;;;;;;;;;;22.90;45.40;;;;;;474438;251;1342;-53
2022/10/17 11:27:35;;;;;;;;;;;22.90;45.10;;;;;;474159;251;2185;-54
2022/10/17 11:29:37;;;;;;;;;;;22.90;45.20;;;;;;474199;251;1255;-53
2022/10/17 11:31:38;;;;;;;;;;;22.90;45.10;;;;;;474384;251;1247;-53
2022/10/17 11:33:39;;;;;;;;;;;22.90;45.20;;;;;;474261;251;1473;-53
2022/10/17 11:35:41;;;;;;;;;;;22.90;45.00;;;;;;474384;251;1226;-53
2022/10/17 11:37:42;;;;;;;;;;;22.90;45.10;;;;;;474296;251;1263;-53
2022/10/17 11:39:47;;;;;;;;;;;22.90;45.10;;;;;;474455;251;1220;-53
2022/10/17 11:41:46;;;;;;;;;;;22.90;45.00;;;;;;474165;251;2217;-53
2022/10/17 11:43:47;;;;;;;;;;;22.90;44.90;;;;;;474235;251;1381;-53
2022/10/17 11:45:49;;;;;;;;;;;22.90;45.00;;;;;;474474;251;1237;-53
2022/10/17 11:47:50;;;;;;;;;;;22.90;45.00;;;;;;474382;251;2158;-53
2022/10/17 11:49:52;;;;;;;;;;;22.90;44.90;;;;;;474075;251;1214;-53
2022/10/17 11:51:53;;;;;;;;;;;22.90;44.90;;;;;;474271;251;1370;-53
2022/10/17 11:53:54;;;;;;;;;;;22.90;44.90;;;;;;474211;251;1341;-53
2022/10/17 11:55:56;;;;;;;;;;;23.00;44.90;;;;;;474334;251;1324;-54
2022/10/17 11:57:57;;;;;;;;;;;22.90;44.80;;;;;;474254;251;1256;-53